Time;durP1;ratioP1;P1;durP2;ratioP2;P2;SDS_P1;SDS_P2;PMS_P1;PMS_P2;Temp;Humidity;BMP_temperature;BMP_pressure;BME280_temperature;BME280_humidity;BME280_pressure;Samples;Min_cycle;Max_cycle;Signal;HPM_P1;HPM_P2
2021/07/25 00:02:09;;;;;;;11.07;6.95;;;18.10;99.90;;;;;;5065771;28;20064;-83
2021/07/25 00:04:35;;;;;;;15.13;8.35;;;18.10;99.90;;;;;;5067502;28;20024;-83
2021/07/25 00:07:00;;;;;;;11.45;7.20;;;18.50;99.90;;;;;;5069015;28;20029;-83
2021/07/25 00:09:26;;;;;;;11.13;6.68;;;18.50;99.90;;;;;;5059657;28;20029;-84
2021/07/25 00:11:52;;;;;;;10.63;7.05;;;17.90;99.90;;;;;;5062424;28;20100;-82
2021/07/25 00:14:17;;;;;;;9.25;6.63;;;17.90;99.90;;;;;;5067756;28;20024;-82
2021/07/25 00:16:43;;;;;;;9.82;6.45;;;17.90;99.90;;;;;;5073235;28;20082;-82
2021/07/25 00:19:12;;;;;;;9.55;6.13;;;18.00;99.90;;;;;;5067020;28;20031;-81
2021/07/25 00:21:38;;;;;;;10.55;6.70;;;17.90;99.90;;;;;;5063152;28;20376;-86
2021/07/25 00:24:04;;;;;;;11.75;7.63;;;17.90;99.90;;;;;;5060799;28;20514;-84
2021/07/25 00:26:37;;;;;;;11.00;7.82;;;17.90;99.90;;;;;;5077403;28;20055;-87
2021/07/25 00:29:04;;;;;;;10.90;7.82;;;17.90;99.90;;;;;;5058244;28;20021;-86
2021/07/25 00:31:30;;;;;;;13.38;8.02;;;19.30;99.90;;;;;;5056597;28;20222;-84
2021/07/25 00:33:56;;;;;;;9.35;6.47;;;17.80;99.90;;;;;;5064625;28;20033;-83
2021/07/25 00:36:22;;;;;;;10.50;7.03;;;17.80;99.90;;;;;;5063258;28;20056;-83
2021/07/25 00:38:47;;;;;;;10.75;5.90;;;17.90;99.90;;;;;;5064987;28;20032;-81
2021/07/25 00:41:15;;;;;;;9.00;6.20;;;18.20;99.90;;;;;;5060195;28;20029;-84
2021/07/25 00:43:43;;;;;;;8.98;5.97;;;19.50;99.90;;;;;;5057285;28;20021;-84
2021/07/25 00:46:11;;;;;;;9.88;5.78;;;17.60;99.90;;;;;;5075688;28;20055;-84
2021/07/25 00:48:37;;;;;;;8.43;5.70;;;17.50;99.90;;;;;;5087139;28;20033;-84
2021/07/25 00:51:05;;;;;;;8.45;5.95;;;17.60;99.90;;;;;;5060825;28;20032;-81
2021/07/25 00:53:34;;;;;;;9.00;5.38;;;17.30;99.90;;;;;;5056026;28;20523;-84
2021/07/25 00:56:01;;;;;;;10.50;6.35;;;17.40;99.90;;;;;;5064905;28;20150;-84
2021/07/25 00:58:26;;;;;;;9.23;5.55;;;17.50;99.90;;;;;;5062520;28;20025;-84
2021/07/25 01:00:52;;;;;;;9.85;5.85;;;18.00;99.90;;;;;;5080586;28;20025;-81
2021/07/25 01:03:52;;;;;;;10.23;5.97;;;17.40;99.90;;;;;;5071054;28;20029;-84
2021/07/25 01:06:24;;;;;;;7.57;5.63;;;17.40;99.90;;;;;;5060017;28;20084;-85
2021/07/25 01:09:03;;;;;;;10.77;6.65;;;17.40;99.90;;;;;;5067148;28;20036;-84
2021/07/25 01:11:40;;;;;;;12.15;7.22;;;17.40;99.90;;;;;;5063678;28;20025;-86
2021/07/25 01:14:06;;;;;;;10.55;6.85;;;17.40;99.90;;;;;;5064588;28;20134;-85
2021/07/25 01:16:32;;;;;;;18.08;8.13;;;17.50;99.90;;;;;;5078978;28;20025;-86
2021/07/25 01:18:58;;;;;;;32.58;13.23;;;18.20;99.90;;;;;;5066682;28;20032;-85
2021/07/25 01:21:24;;;;;;;16.55;9.18;;;18.70;99.90;;;;;;5063975;28;20025;-86
2021/07/25 01:23:50;;;;;;;20.40;10.15;;;;;;;;;;5063117;28;20032;-85
2021/07/25 01:26:43;;;;;;;14.18;7.55;;;17.20;99.90;;;;;;5065633;28;20166;-85
2021/07/25 01:29:11;;;;;;;14.35;7.50;;;19.10;99.90;;;;;;5069280;28;20048;-84
2021/07/25 01:31:41;;;;;;;12.05;7.55;;;17.30;99.90;;;;;;5065894;28;20025;-85
2021/07/25 01:34:08;;;;;;;17.55;8.32;;;17.30;99.90;;;;;;5067316;28;20040;-84
2021/07/25 01:36:36;;;;;;;13.95;8.35;;;17.20;99.90;;;;;;5059408;28;20032;-84
2021/07/25 01:39:02;;;;;;;13.68;8.32;;;;;;;;;;5062981;28;20461;-86
2021/07/25 01:41:28;;;;;;;13.02;7.95;;;17.10;99.90;;;;;;5064782;28;20021;-86
2021/07/25 01:43:54;;;;;;;13.73;8.32;;;17.20;99.90;;;;;;5065718;28;20493;-84
2021/07/25 01:46:19;;;;;;;14.30;8.90;;;18.20;99.90;;;;;;5068762;28;20024;-84
2021/07/25 01:48:45;;;;;;;19.27;9.27;;;17.10;99.90;;;;;;5067676;28;20024;-84
2021/07/25 01:51:12;;;;;;;16.45;8.85;;;17.00;99.90;;;;;;5066156;28;20027;-85
2021/07/25 01:53:38;;;;;;;14.45;8.57;;;;;;;;;;5060550;28;20071;-84
2021/07/25 01:56:04;;;;;;;17.60;8.80;;;17.00;99.90;;;;;;5068003;28;20025;-85
2021/07/25 01:58:30;;;;;;;22.83;10.10;;;15.90;99.90;;;;;;5085575;28;20021;-85
2021/07/25 02:00:55;;;;;;;16.42;9.70;;;19.10;99.90;;;;;;5060553;28;20017;-85
2021/07/25 02:03:25;;;;;;;19.10;9.52;;;17.00;99.90;;;;;;5070480;28;20035;-85
2021/07/25 02:05:51;;;;;;;16.08;8.85;;;17.10;99.90;;;;;;5069978;28;20036;-84
2021/07/25 02:08:18;;;;;;;13.48;9.00;;;17.10;99.90;;;;;;5074023;28;20032;-85
2021/07/25 02:10:51;;;;;;;18.55;9.32;;;19.10;99.90;;;;;;5082276;28;20009;-84
2021/07/25 02:13:19;;;;;;;17.55;10.13;;;17.10;99.90;;;;;;5060054;28;20627;-83
2021/07/25 02:15:45;;;;;;;18.08;9.90;;;17.10;99.90;;;;;;5063807;28;20036;-85
2021/07/25 02:18:11;;;;;;;19.42;9.32;;;17.70;99.90;;;;;;5066695;28;20540;-83
2021/07/25 02:20:38;;;;;;;18.23;10.15;;;17.10;99.90;;;;;;5063035;28;20020;-85
2021/07/25 02:23:04;;;;;;;15.70;9.65;;;17.10;99.90;;;;;;5066284;28;20020;-84
2021/07/25 02:25:29;;;;;;;26.35;9.10;;;17.90;99.90;;;;;;5063995;28;20029;-82
2021/07/25 02:27:55;;;;;;;17.55;9.35;;;17.00;99.90;;;;;;5067027;28;20044;-85
2021/07/25 02:30:21;;;;;;;19.67;9.55;;;18.30;99.90;;;;;;5067314;28;20049;-83
2021/07/25 02:32:47;;;;;;;18.08;9.75;;;17.00;99.90;;;;;;5062374;28;20033;-85
2021/07/25 02:35:12;;;;;;;17.67;9.55;;;16.90;99.90;;;;;;5068033;28;20040;-84
2021/07/25 02:37:38;;;;;;;20.42;10.32;;;17.30;99.90;;;;;;5062589;28;20021;-87
2021/07/25 02:40:04;;;;;;;17.30;10.45;;;16.80;99.90;;;;;;5069370;28;20050;-85
2021/07/25 02:42:30;;;;;;;17.17;10.27;;;16.80;99.90;;;;;;5065003;28;20640;-84
2021/07/25 02:44:55;;;;;;;16.63;10.23;;;16.90;99.90;;;;;;5063999;28;20048;-85
2021/07/25 02:47:21;;;;;;;17.13;9.70;;;17.10;99.90;;;;;;5061466;28;20044;-85
2021/07/25 02:49:46;;;;;;;16.00;9.95;;;17.30;99.90;;;;;;5063776;28;20031;-85
2021/07/25 02:52:12;;;;;;;15.30;9.90;;;17.00;99.90;;;;;;5070864;28;20029;-86
2021/07/25 02:54:38;;;;;;;18.50;10.60;;;;;;;;;;5067399;28;20025;-85
2021/07/25 02:57:04;;;;;;;19.73;10.30;;;17.00;99.90;;;;;;5065946;28;20025;-86
2021/07/25 02:59:30;;;;;;;23.17;10.20;;;17.10;99.90;;;;;;5065067;28;20086;-85
2021/07/25 03:01:56;;;;;;;20.38;9.85;;;17.00;99.90;;;;;;5078240;28;20397;-84
2021/07/25 03:04:22;;;;;;;16.02;9.52;;;17.20;99.90;;;;;;5071872;28;20024;-85
2021/07/25 03:06:48;;;;;;;19.30;9.65;;;19.10;99.90;;;;;;5064232;28;20036;-85
2021/07/25 03:09:14;;;;;;;16.73;8.95;;;;;;;;;;5064551;28;20041;-82
2021/07/25 03:11:40;;;;;;;18.38;9.52;;;;;;;;;;5067910;28;20079;-85
2021/07/25 03:14:06;;;;;;;15.77;9.43;;;;;;;;;;5065877;28;20029;-86
2021/07/25 03:16:32;;;;;;;14.25;8.93;;;17.30;99.90;;;;;;5067474;28;20066;-82
2021/07/25 03:18:58;;;;;;;15.20;8.60;;;17.30;99.90;;;;;;5062879;28;20021;-84
2021/07/25 03:21:23;;;;;;;15.00;8.75;;;17.20;99.90;;;;;;5064062;28;20025;-85
2021/07/25 03:23:49;;;;;;;15.25;9.27;;;19.30;99.90;;;;;;5061977;28;20029;-86
2021/07/25 03:26:15;;;;;;;19.33;9.88;;;17.80;99.90;;;;;;5067003;28;20051;-86
2021/07/25 03:28:40;;;;;;;16.55;9.57;;;17.40;99.90;;;;;;5077886;28;20029;-83
2021/07/25 03:31:06;;;;;;;15.88;9.18;;;17.30;99.90;;;;;;5077225;28;20059;-84
2021/07/25 03:33:31;;;;;;;18.00;9.20;;;19.20;99.90;;;;;;5061822;28;20028;-86
2021/07/25 03:35:57;;;;;;;20.17;10.90;;;;;;;;;;5065037;28;20452;-85
2021/07/25 03:38:24;;;;;;;17.05;9.82;;;17.30;99.90;;;;;;5070564;28;20479;-84
2021/07/25 03:40:50;;;;;;;17.35;9.50;;;;;;;;;;5060813;28;20033;-83
2021/07/25 03:43:16;;;;;;;17.85;10.80;;;17.30;99.90;;;;;;5067264;28;20024;-84
2021/07/25 03:45:44;;;;;;;16.73;10.27;;;17.60;99.90;;;;;;5062927;28;20032;-85
2021/07/25 03:48:10;;;;;;;16.67;10.57;;;17.30;99.90;;;;;;5061618;28;20028;-84
2021/07/25 03:50:36;;;;;;;18.48;10.77;;;17.40;99.90;;;;;;5064708;28;20044;-83
2021/07/25 03:53:02;;;;;;;20.55;10.88;;;17.40;99.90;;;;;;5066140;28;20104;-85
2021/07/25 03:55:28;;;;;;;18.00;10.10;;;17.40;99.90;;;;;;5064435;28;20049;-82
2021/07/25 03:57:56;;;;;;;19.00;9.73;;;19.10;99.90;;;;;;5061675;28;20025;-80
2021/07/25 04:00:21;;;;;;;21.45;10.57;;;17.40;99.90;;;;;;5059671;28;20569;-83
2021/07/25 04:02:47;;;;;;;16.75;9.23;;;17.40;99.90;;;;;;5067174;28;20044;-85
2021/07/25 04:05:13;;;;;;;21.05;10.30;;;17.40;99.90;;;;;;5064678;28;20612;-82
2021/07/25 04:07:39;;;;;;;19.15;10.45;;;17.40;99.90;;;;;;5066024;28;20021;-85
2021/07/25 04:10:05;;;;;;;20.80;11.23;;;17.40;99.90;;;;;;5063639;28;20154;-80
2021/07/25 04:12:30;;;;;;;21.20;10.90;;;17.40;99.90;;;;;;5059932;28;20033;-83
2021/07/25 04:14:56;;;;;;;22.65;10.75;;;17.40;99.90;;;;;;5059832;28;20663;-85
2021/07/25 04:17:22;;;;;;;19.30;10.50;;;18.40;99.90;;;;;;5067491;28;20107;-84
2021/07/25 04:19:47;;;;;;;17.73;10.25;;;17.40;99.90;;;;;;5064005;28;20024;-83
2021/07/25 04:22:13;;;;;;;23.17;10.90;;;17.40;99.90;;;;;;5065011;28;20036;-84
2021/07/25 04:24:38;;;;;;;18.15;9.77;;;17.50;99.90;;;;;;5068715;28;20655;-84
2021/07/25 04:27:04;;;;;;;18.27;10.73;;;17.40;99.90;;;;;;5061506;28;20029;-84
2021/07/25 04:29:30;;;;;;;16.30;9.80;;;17.40;99.90;;;;;;5061595;28;20435;-84
2021/07/25 04:31:56;;;;;;;18.58;9.95;;;17.40;99.90;;;;;;5083897;28;20031;-84
2021/07/25 04:34:24;;;;;;;20.08;9.43;;;17.40;99.90;;;;;;5067659;28;20062;-85
2021/07/25 04:36:50;;;;;;;16.45;9.00;;;17.50;99.90;;;;;;5073305;28;20031;-84
2021/07/25 04:39:16;;;;;;;15.63;8.23;;;17.50;99.90;;;;;;5080387;28;20024;-82
2021/07/25 04:41:50;;;;;;;14.13;8.20;;;17.50;99.90;;;;;;5083776;28;20091;-84
2021/07/25 04:44:18;;;;;;;15.73;8.80;;;17.50;99.90;;;;;;5081227;28;20025;-85
2021/07/25 04:46:50;;;;;;;14.98;8.20;;;17.50;99.90;;;;;;5076356;28;20099;-82
2021/07/25 04:49:17;;;;;;;14.48;8.35;;;17.40;99.90;;;;;;5068203;28;20089;-84
2021/07/25 04:51:45;;;;;;;15.95;9.07;;;18.00;99.90;;;;;;5082241;28;20024;-84
2021/07/25 04:54:13;;;;;;;16.73;9.43;;;17.50;99.90;;;;;;5078828;28;20107;-82
2021/07/25 04:56:57;;;;;;;16.25;8.85;;;17.60;99.90;;;;;;5104553;28;20029;-86
2021/07/25 04:59:29;;;;;;;19.98;9.40;;;17.60;99.90;;;;;;5080047;28;20016;-85
2021/07/25 05:02:02;;;;;;;15.95;8.32;;;17.60;99.90;;;;;;5078053;28;20172;-84
2021/07/25 05:04:29;;;;;;;17.10;8.63;;;17.60;99.90;;;;;;5082848;28;20166;-84
2021/07/25 05:06:55;;;;;;;14.55;8.07;;;17.60;99.90;;;;;;5083738;28;20113;-83
2021/07/25 05:09:21;;;;;;;17.75;8.82;;;;;;;;;;5081029;28;20471;-83
2021/07/25 05:12:04;;;;;;;14.68;8.40;;;17.70;99.90;;;;;;5081413;28;20191;-85
2021/07/25 05:14:37;;;;;;;15.45;8.55;;;17.80;99.90;;;;;;5081106;28;20478;-82
2021/07/25 05:17:26;;;;;;;14.48;8.05;;;17.80;99.90;;;;;;5074864;28;20025;-83
2021/07/25 05:20:03;;;;;;;13.77;8.18;;;17.90;99.90;;;;;;5081533;28;20136;-85
2021/07/25 05:22:56;;;;;;;15.10;8.43;;;17.90;99.90;;;;;;5083431;28;20037;-83
2021/07/25 05:25:23;;;;;;;15.00;7.95;;;17.90;99.90;;;;;;5080688;28;20043;-85
2021/07/25 05:27:51;;;;;;;14.40;8.00;;;18.00;99.90;;;;;;5073937;28;20025;-83
2021/07/25 05:30:21;;;;;;;12.82;7.72;;;18.00;99.90;;;;;;5073226;28;20024;-85
2021/07/25 05:32:47;;;;;;;12.35;7.50;;;18.10;99.90;;;;;;5072080;28;20047;-84
2021/07/25 05:35:14;;;;;;;15.07;8.27;;;19.80;99.90;;;;;;5066415;28;20025;-84
2021/07/25 05:37:40;;;;;;;12.98;7.82;;;18.10;99.90;;;;;;5072857;28;20113;-84
2021/07/25 05:40:07;;;;;;;13.80;7.20;;;18.30;99.90;;;;;;5078539;28;20025;-84
2021/07/25 05:42:33;;;;;;;15.32;7.45;;;18.40;99.90;;;;;;5073523;28;20432;-83
2021/07/25 05:44:59;;;;;;;14.70;7.93;;;18.80;99.90;;;;;;5078176;28;20147;-84
2021/07/25 05:47:25;;;;;;;14.23;8.00;;;18.50;99.90;;;;;;5068747;28;20465;-84
2021/07/25 05:49:50;;;;;;;11.57;6.95;;;19.50;99.90;;;;;;5067752;28;20028;-82
2021/07/25 05:52:16;;;;;;;12.48;7.53;;;18.50;99.90;;;;;;5074270;28;20375;-84
2021/07/25 05:54:42;;;;;;;12.82;7.65;;;19.80;99.90;;;;;;5080069;28;20029;-83
2021/07/25 05:57:08;;;;;;;12.45;7.35;;;18.60;99.90;;;;;;5079338;28;20057;-83
2021/07/25 05:59:34;;;;;;;13.60;7.82;;;18.60;99.90;;;;;;5075993;28;20029;-84
2021/07/25 06:02:03;;;;;;;11.52;7.25;;;18.70;99.90;;;;;;5071582;28;20031;-81
2021/07/25 06:04:29;;;;;;;12.55;7.72;;;18.70;99.90;;;;;;5075112;28;20029;-85
2021/07/25 06:06:56;;;;;;;11.60;7.10;;;18.50;99.90;;;;;;5072784;28;20033;-83
2021/07/25 06:09:22;;;;;;;13.30;7.78;;;18.50;99.90;;;;;;5073078;28;20028;-84
2021/07/25 06:11:48;;;;;;;15.13;8.43;;;19.90;99.90;;;;;;5077911;28;20025;-83
2021/07/25 06:14:14;;;;;;;11.65;7.47;;;18.60;99.90;;;;;;5069441;28;20043;-83
2021/07/25 06:16:39;;;;;;;14.05;7.28;;;19.60;99.90;;;;;;5072513;28;20582;-84
2021/07/25 06:19:05;;;;;;;11.73;7.63;;;18.70;99.90;;;;;;5070949;28;20034;-84
2021/07/25 06:21:31;;;;;;;11.88;6.93;;;18.70;99.90;;;;;;5066640;28;20047;-85
2021/07/25 06:23:56;;;;;;;10.82;7.30;;;18.80;99.90;;;;;;5065444;28;20158;-83
2021/07/25 06:26:23;;;;;;;12.55;7.13;;;18.70;99.90;;;;;;5075230;28;20033;-84
2021/07/25 06:28:49;;;;;;;13.77;7.82;;;18.80;99.90;;;;;;5070873;28;20040;-83
2021/07/25 06:31:15;;;;;;;10.63;7.35;;;18.80;99.90;;;;;;5066995;28;20025;-84
2021/07/25 06:33:41;;;;;;;9.98;6.88;;;18.80;99.90;;;;;;5075740;28;20134;-84
2021/07/25 06:36:11;;;;;;;10.07;7.05;;;18.90;99.90;;;;;;5078174;28;20081;-84
2021/07/25 06:38:40;;;;;;;;;;;19.10;99.90;;;;;;5072005;28;20017;-84
2021/07/25 06:41:07;;;;;;;12.00;7.45;;;19.20;99.90;;;;;;5068166;28;19930;-84
2021/07/25 06:43:33;;;;;;;11.65;7.18;;;19.20;99.90;;;;;;5077770;28;20036;-83
2021/07/25 06:45:59;;;;;;;11.82;7.68;;;19.30;99.90;;;;;;5076602;28;20037;-82
2021/07/25 06:48:29;;;;;;;12.35;7.30;;;19.40;99.90;;;;;;5077390;28;20055;-83
2021/07/25 06:51:00;;;;;;;12.68;7.85;;;19.50;99.90;;;;;;5077112;28;20036;-84
2021/07/25 06:53:28;;;;;;;10.18;7.40;;;19.50;99.90;;;;;;5077570;28;20029;-82
2021/07/25 06:55:54;;;;;;;11.63;7.40;;;19.60;99.90;;;;;;5077936;28;20025;-84
2021/07/25 06:58:21;;;;;;;10.95;8.02;;;19.70;99.90;;;;;;5076744;28;20044;-84
2021/07/25 07:00:47;;;;;;;14.57;8.20;;;19.60;99.90;;;;;;5075177;28;20052;-83
2021/07/25 07:03:16;;;;;;;11.68;8.18;;;19.60;99.90;;;;;;5082919;28;20039;-84
2021/07/25 07:05:42;;;;;;;11.98;8.10;;;19.70;99.90;;;;;;5074605;28;20035;-83
2021/07/25 07:08:07;;;;;;;11.10;7.63;;;19.90;99.90;;;;;;5074236;28;20029;-85
2021/07/25 07:10:42;;;;;;;17.23;7.95;;;19.90;99.90;;;;;;5072666;28;20024;-84
2021/07/25 07:13:10;;;;;;;11.05;7.40;;;20.00;99.90;;;;;;5065346;28;20128;-83
2021/07/25 07:15:38;;;;;;;12.88;7.15;;;20.30;99.90;;;;;;5077131;28;20021;-84
2021/07/25 07:18:04;;;;;;;13.52;7.47;;;20.20;99.90;;;;;;5074472;28;20025;-84
2021/07/25 07:20:30;;;;;;;12.25;7.28;;;20.40;99.90;;;;;;5074601;28;20049;-84
2021/07/25 07:23:08;;;;;;;11.45;7.43;;;20.50;99.90;;;;;;5075858;28;20024;-83
2021/07/25 07:25:42;;;;;;;10.85;7.85;;;20.40;99.90;;;;;;5069241;28;20028;-84
2021/07/25 07:28:08;;;;;;;10.02;6.68;;;20.20;99.90;;;;;;5064938;28;20056;-84
2021/07/25 07:30:35;;;;;;;13.88;6.82;;;20.20;99.90;;;;;;5063334;28;20103;-84
2021/07/25 07:33:09;;;;;;;9.98;6.55;;;20.40;99.90;;;;;;5062912;28;20066;-84
2021/07/25 07:35:35;;;;;;;9.15;6.30;;;20.30;99.90;;;;;;5074098;28;20021;-83
2021/07/25 07:38:01;;;;;;;10.07;6.70;;;20.40;99.90;;;;;;5072633;28;20317;-83
2021/07/25 07:40:27;;;;;;;9.30;6.10;;;20.70;99.90;;;;;;5074308;28;20027;-83
2021/07/25 07:42:53;;;;;;;8.25;6.15;;;20.90;99.90;;;;;;5067385;28;20028;-85
2021/07/25 07:45:19;;;;;;;8.98;6.68;;;22.50;99.90;;;;;;5074109;28;20437;-85
2021/07/25 07:47:49;;;;;;;11.02;5.88;;;21.10;99.90;;;;;;5077510;28;20028;-85
2021/07/25 07:50:16;;;;;;;7.50;5.57;;;21.20;99.90;;;;;;5071353;28;20032;-84
2021/07/25 07:52:41;;;;;;;9.07;5.15;;;21.30;99.90;;;;;;5074719;28;20028;-84
2021/07/25 07:55:08;;;;;;;8.75;4.97;;;21.40;99.90;;;;;;5071884;28;20035;-85
2021/07/25 07:57:33;;;;;;;6.25;4.38;;;21.40;99.90;;;;;;5070226;28;20370;-82
2021/07/25 07:59:59;;;;;;;7.40;5.35;;;21.60;99.90;;;;;;5083273;28;20036;-84
2021/07/25 08:02:25;;;;;;;7.38;5.15;;;21.50;99.90;;;;;;5069253;28;20028;-84
2021/07/25 08:04:50;;;;;;;8.45;5.32;;;21.90;99.90;;;;;;5081086;28;20505;-85
2021/07/25 08:07:16;;;;;;;8.00;5.03;;;;;;;;;;5067767;28;20055;-84
2021/07/25 08:09:42;;;;;;;11.65;5.45;;;;;;;;;;5068095;28;20340;-84
2021/07/25 08:12:09;;;;;;;7.55;5.00;;;21.50;99.90;;;;;;5064699;28;20025;-84
2021/07/25 08:14:35;;;;;;;8.05;4.97;;;21.70;99.90;;;;;;5071779;28;20048;-85
2021/07/25 08:17:01;;;;;;;6.88;4.63;;;22.10;99.90;;;;;;5064863;28;20032;-84
2021/07/25 08:19:27;;;;;;;9.98;5.68;;;23.20;99.90;;;;;;5068054;28;20013;-83
2021/07/25 08:21:53;;;;;;;6.43;4.40;;;22.00;99.90;;;;;;5070938;28;20029;-84
2021/07/25 08:24:18;;;;;;;6.35;4.43;;;22.10;99.90;;;;;;5073314;28;20093;-83
2021/07/25 08:26:46;;;;;;;7.82;4.50;;;22.40;99.90;;;;;;5067975;28;20028;-85
2021/07/25 08:29:12;;;;;;;6.22;4.65;;;22.20;99.90;;;;;;5069418;28;20020;-83
2021/07/25 08:31:38;;;;;;;7.28;4.40;;;22.00;99.90;;;;;;5071510;28;20037;-83
2021/07/25 08:34:03;;;;;;;6.32;4.43;;;22.20;99.90;;;;;;5070988;28;20050;-82
2021/07/25 08:36:30;;;;;;;5.55;3.97;;;22.00;99.90;;;;;;5066258;28;20017;-83
2021/07/25 08:38:56;;;;;;;5.35;4.00;;;;;;;;;;5068623;28;20350;-83
2021/07/25 08:41:33;;;;;;;7.00;3.80;;;22.00;99.90;;;;;;5070411;28;20028;-83
2021/07/25 08:44:17;;;;;;;6.80;4.20;;;22.30;99.90;;;;;;5074522;28;20048;-83
2021/07/25 08:46:44;;;;;;;6.90;4.10;;;22.30;99.90;;;;;;5073425;28;20061;-84
2021/07/25 08:49:16;;;;;;;5.05;3.92;;;22.60;99.90;;;;;;5077290;28;20123;-83
2021/07/25 08:51:53;;;;;;;8.35;4.30;;;22.70;99.90;;;;;;5072232;28;20119;-85
2021/07/25 08:54:19;;;;;;;9.07;5.10;;;22.80;99.90;;;;;;5071003;28;20029;-85
2021/07/25 08:56:48;;;;;;;5.85;3.72;;;23.20;99.90;;;;;;5065032;28;20017;-83
2021/07/25 08:59:15;;;;;;;5.72;3.88;;;23.30;99.90;;;;;;5063257;28;20064;-83
2021/07/25 09:01:42;;;;;;;8.35;4.05;;;23.30;99.90;;;;;;5067350;28;20025;-84
2021/07/25 09:04:07;;;;;;;5.82;4.35;;;23.50;99.90;;;;;;5065756;28;20039;-83
2021/07/25 09:06:47;;;;;;;6.22;4.20;;;23.40;99.90;;;;;;5064954;28;20553;-83
2021/07/25 09:09:13;;;;;;;6.00;3.80;;;23.50;99.90;;;;;;5073073;28;21008;-83
2021/07/25 09:11:39;;;;;;;4.97;3.33;;;23.60;99.90;;;;;;5069770;28;20033;-83
2021/07/25 09:14:05;;;;;;;5.07;3.70;;;23.50;99.90;;;;;;5069239;28;20108;-84
2021/07/25 09:16:33;;;;;;;5.13;3.60;;;23.20;99.90;;;;;;5072001;28;20052;-85
2021/07/25 09:19:00;;;;;;;4.70;3.40;;;23.20;99.90;;;;;;5075491;28;20028;-84
2021/07/25 09:21:40;;;;;;;6.10;3.55;;;24.20;99.90;;;;;;5079865;28;20051;-84
2021/07/25 09:24:25;;;;;;;6.47;3.47;;;23.70;99.90;;;;;;5079256;28;20037;-83
2021/07/25 09:27:00;;;;;;;6.75;3.60;;;23.70;99.90;;;;;;5091313;28;20044;-84
2021/07/25 09:29:28;;;;;;;5.65;3.53;;;23.80;99.80;;;;;;5075472;28;20060;-82
2021/07/25 09:32:15;;;;;;;6.75;3.47;;;23.70;99.40;;;;;;5072096;28;20802;-84
2021/07/25 09:34:43;;;;;;;6.95;3.40;;;24.00;99.50;;;;;;5085252;28;20041;-84
2021/07/25 09:37:12;;;;;;;5.60;3.35;;;24.30;98.80;;;;;;5080474;28;20032;-83
2021/07/25 09:39:40;;;;;;;4.15;2.85;;;24.40;99.00;;;;;;5075756;28;20021;-83
2021/07/25 09:42:08;;;;;;;6.85;3.10;;;24.70;98.50;;;;;;5076079;28;20035;-83
2021/07/25 09:44:55;;;;;;;5.80;3.67;;;24.70;98.40;;;;;;5073984;28;20453;-84
2021/07/25 09:47:40;;;;;;;5.38;3.20;;;24.60;98.00;;;;;;5079448;28;20056;-84
2021/07/25 09:50:07;;;;;;;5.88;3.53;;;24.50;98.20;;;;;;5079943;28;20032;-84
2021/07/25 09:52:37;;;;;;;3.47;2.70;;;24.30;98.10;;;;;;5077908;28;20485;-85
2021/07/25 09:55:08;;;;;;;6.00;3.13;;;23.90;98.60;;;;;;5082917;28;20034;-84
2021/07/25 09:57:37;;;;;;;3.88;3.17;;;23.90;98.80;;;;;;5072858;28;20027;-84
2021/07/25 10:00:13;;;;;;;3.50;2.67;;;23.90;99.30;;;;;;5077066;28;20050;-85
2021/07/25 10:02:46;;;;;;;5.15;3.13;;;24.20;98.80;;;;;;5087645;28;20056;-84
2021/07/25 10:05:13;;;;;;;4.38;3.20;;;24.40;98.30;;;;;;5084966;28;20029;-84
2021/07/25 10:07:40;;;;;;;5.85;3.00;;;24.60;98.00;;;;;;5076949;28;20021;-82
2021/07/25 10:10:07;;;;;;;5.45;2.92;;;24.60;98.10;;;;;;5083127;28;20025;-84
2021/07/25 10:12:35;;;;;;;3.75;2.88;;;24.30;98.00;;;;;;5087529;28;20026;-84
2021/07/25 10:15:06;;;;;;;4.20;3.10;;;24.50;97.80;;;;;;5078809;28;20035;-83
2021/07/25 10:17:35;;;;;;;3.90;2.75;;;24.70;97.50;;;;;;5078702;28;20032;-84
2021/07/25 10:20:02;;;;;;;4.47;2.78;;;24.70;97.60;;;;;;5074933;28;20028;-83
2021/07/25 10:22:30;;;;;;;4.85;2.83;;;24.60;97.60;;;;;;5074682;28;20047;-83
2021/07/25 10:24:59;;;;;;;6.88;2.70;;;24.40;97.00;;;;;;5069346;28;20025;-83
2021/07/25 10:27:26;;;;;;;5.07;2.72;;;24.30;97.20;;;;;;5075766;28;20020;-83
2021/07/25 10:29:55;;;;;;;4.57;3.00;;;24.10;97.40;;;;;;5072290;28;20100;-83
2021/07/25 10:32:21;;;;;;;6.07;2.85;;;23.70;98.60;;;;;;5077222;28;20303;-82
2021/07/25 10:34:48;;;;;;;5.05;2.88;;;24.00;98.30;;;;;;5071501;28;20586;-83
2021/07/25 10:37:15;;;;;;;4.03;2.55;;;;;;;;;;5075333;28;20025;-83
2021/07/25 10:39:50;;;;;;;3.78;2.40;;;25.00;96.30;;;;;;5077178;28;20029;-82
2021/07/25 10:42:23;;;;;;;5.25;2.63;;;25.30;96.30;;;;;;5075009;28;20419;-83
2021/07/25 10:44:49;;;;;;;7.68;2.65;;;;;;;;;;5086529;28;20388;-84
2021/07/25 10:47:27;;;;;;;4.43;2.20;;;25.60;95.70;;;;;;5077644;28;20123;-82
2021/07/25 10:50:07;;;;;;;3.53;1.95;;;25.60;95.10;;;;;;5088044;28;20024;-81
2021/07/25 10:52:52;;;;;;;5.10;2.60;;;25.70;95.20;;;;;;5083132;28;20017;-84
2021/07/25 10:55:41;;;;;;;4.88;2.75;;;25.90;94.70;;;;;;5077116;28;20037;-84
2021/07/25 10:58:20;;;;;;;5.27;2.17;;;26.10;94.30;;;;;;5077889;28;20032;-85
2021/07/25 11:00:54;;;;;;;8.13;2.28;;;26.30;93.40;;;;;;5077165;28;20360;-83
2021/07/25 11:03:26;;;;;;;4.05;2.22;;;26.20;93.60;;;;;;5074111;28;20038;-83
2021/07/25 11:06:01;;;;;;;4.88;2.13;;;25.80;93.60;;;;;;5088432;28;20028;-83
2021/07/25 11:08:31;;;;;;;4.07;2.00;;;25.80;93.70;;;;;;5077707;28;20024;-83
2021/07/25 11:10:56;;;;;;;3.22;2.15;;;;;;;;;;5085188;28;20363;-83
2021/07/25 11:13:38;;;;;;;3.30;2.10;;;25.70;92.80;;;;;;5077238;28;20080;-82
2021/07/25 11:16:30;;;;;;;5.28;1.80;;;25.90;92.40;;;;;;5083810;28;20028;-81
2021/07/25 11:19:07;;;;;;;5.45;2.03;;;25.90;92.60;;;;;;5077617;28;20016;-82
2021/07/25 11:21:40;;;;;;;4.20;1.95;;;26.00;92.00;;;;;;5078428;28;20024;-84
2021/07/25 11:24:22;;;;;;;4.07;1.88;;;26.00;92.00;;;;;;5078429;28;20032;-83
2021/07/25 11:26:52;;;;;;;5.30;2.00;;;26.10;92.90;;;;;;5077251;28;20028;-86
2021/07/25 11:29:40;;;;;;;4.10;1.92;;;26.10;92.30;;;;;;5080314;28;20028;-83
2021/07/25 11:32:36;;;;;;;4.70;2.20;;;26.40;91.60;;;;;;5077607;28;20048;-84
2021/07/25 11:35:04;;;;;;;4.10;2.05;;;26.40;90.70;;;;;;5078084;28;20029;-83
2021/07/25 11:37:42;;;;;;;4.28;1.70;;;26.40;90.90;;;;;;5076193;28;20035;-83
2021/07/25 11:40:08;;;;;;;2.97;1.42;;;26.80;90.50;;;;;;5072420;28;20424;-86
2021/07/25 11:42:34;;;;;;;3.72;1.75;;;26.50;86.90;;;;;;5068931;28;20107;-83
2021/07/25 11:45:04;;;;;;;3.45;1.88;;;26.70;86.60;;;;;;5070210;28;20086;-85
2021/07/25 11:47:30;;;;;;;2.78;1.67;;;26.70;86.20;;;;;;5074500;28;20025;-84
2021/07/25 11:49:56;;;;;;;3.20;1.60;;;;;;;;;;5075077;28;20839;-83
2021/07/25 11:52:27;;;;;;;2.85;1.70;;;26.90;86.10;;;;;;5079517;28;20089;-83
2021/07/25 11:54:53;;;;;;;3.90;1.98;;;26.70;85.00;;;;;;5071614;28;20055;-83
2021/07/25 11:57:28;;;;;;;3.08;1.80;;;26.90;85.70;;;;;;5086833;28;20025;-83
2021/07/25 12:00:01;;;;;;;3.55;1.90;;;27.00;85.10;;;;;;5071780;28;20040;-84
2021/07/25 12:02:33;;;;;;;4.55;2.20;;;26.90;86.00;;;;;;5082255;28;20024;-83
2021/07/25 12:05:00;;;;;;;3.95;2.10;;;27.10;85.00;;;;;;5076543;28;20031;-83
2021/07/25 12:07:35;;;;;;;3.67;1.80;;;27.10;85.50;;;;;;5072751;28;20078;-86
2021/07/25 12:10:07;;;;;;;3.17;1.85;;;26.70;87.50;;;;;;5068351;28;20036;-84
2021/07/25 12:12:36;;;;;;;6.07;2.05;;;26.70;86.70;;;;;;5064951;28;20101;-83
2021/07/25 12:15:04;;;;;;;2.95;1.63;;;26.60;87.30;;;;;;5067370;28;20058;-82
2021/07/25 12:17:40;;;;;;;2.67;1.90;;;26.60;87.80;;;;;;5068448;28;20189;-82
2021/07/25 12:20:11;;;;;;;3.85;2.50;;;26.50;88.40;;;;;;5058018;28;20028;-83
2021/07/25 12:23:08;;;;;;;5.38;2.20;;;26.20;89.80;;;;;;5071918;28;20054;-84
2021/07/25 12:25:38;;;;;;;5.53;2.22;;;26.20;88.40;;;;;;5071151;28;20033;-83
2021/07/25 12:28:13;;;;;;;6.18;2.40;;;26.00;89.50;;;;;;5068469;28;20108;-83
2021/07/25 12:30:42;;;;;;;5.32;2.10;;;26.00;89.80;;;;;;5065846;28;20088;-83
2021/07/25 12:33:07;;;;;;;3.13;1.92;;;26.10;88.70;;;;;;5065565;28;20033;-82
2021/07/25 12:35:34;;;;;;;4.30;2.20;;;;;;;;;;5074631;28;20032;-83
2021/07/25 12:38:00;;;;;;;3.75;1.88;;;25.90;89.80;;;;;;5068972;28;20036;-83
2021/07/25 12:40:44;;;;;;;2.83;1.80;;;25.80;90.00;;;;;;5074514;28;20029;-82
2021/07/25 12:43:10;;;;;;;3.05;1.70;;;;;;;;;;5073927;28;20056;-83
2021/07/25 12:45:36;;;;;;;2.55;1.42;;;;;;;;;;5080785;28;20029;-83
2021/07/25 12:48:20;;;;;;;3.47;1.60;;;25.30;91.40;;;;;;5076050;28;20024;-84
2021/07/25 12:51:09;;;;;;;2.65;1.65;;;24.30;92.90;;;;;;5078822;28;20039;-84
2021/07/25 12:53:40;;;;;;;5.43;1.83;;;23.50;96.60;;;;;;5080991;28;20028;-84
2021/07/25 12:56:14;;;;;;;7.35;1.95;;;23.50;96.80;;;;;;5080538;28;20347;-83
2021/07/25 12:59:02;;;;;;;4.13;1.60;;;23.10;99.90;;;;;;5076571;28;20051;-84